sensor_id;sensor_type;location;lat;lon;timestamp;P1;durP1;ratioP1;P2;durP2;ratioP2
12707;SDS011;6418;50.824;4.718;2023-07-29T00:00:07;4.60;;;3.50;;
12707;SDS011;6418;50.824;4.718;2023-07-29T00:02:35;5.78;;;3.60;;
12707;SDS011;6418;50.824;4.718;2023-07-29T00:05:03;4.20;;;3.50;;
12707;SDS011;6418;50.824;4.718;2023-07-29T00:07:30;7.47;;;3.53;;
12707;SDS011;6418;50.824;4.718;2023-07-29T00:09:57;5.20;;;3.53;;
12707;SDS011;6418;50.824;4.718;2023-07-29T00:12:25;6.10;;;3.60;;
12707;SDS011;6418;50.824;4.718;2023-07-29T00:14:52;5.35;;;3.85;;
12707;SDS011;6418;50.824;4.718;2023-07-29T00:17:19;8.50;;;3.65;;
12707;SDS011;6418;50.824;4.718;2023-07-29T00:19:46;7.10;;;3.67;;
12707;SDS011;6418;50.824;4.718;2023-07-29T00:22:13;6.68;;;3.80;;
12707;SDS011;6418;50.824;4.718;2023-07-29T00:24:40;6.82;;;3.80;;
12707;SDS011;6418;50.824;4.718;2023-07-29T00:27:07;5.45;;;3.90;;
12707;SDS011;6418;50.824;4.718;2023-07-29T00:29:35;6.07;;;4.00;;
12707;SDS011;6418;50.824;4.718;2023-07-29T00:32:02;5.87;;;3.80;;
12707;SDS011;6418;50.824;4.718;2023-07-29T00:34:29;6.45;;;3.70;;
12707;SDS011;6418;50.824;4.718;2023-07-29T00:36:56;5.47;;;3.83;;
12707;SDS011;6418;50.824;4.718;2023-07-29T00:39:23;6.55;;;3.70;;
12707;SDS011;6418;50.824;4.718;2023-07-29T00:41:50;5.57;;;3.77;;
12707;SDS011;6418;50.824;4.718;2023-07-29T00:44:17;6.97;;;3.60;;
12707;SDS011;6418;50.824;4.718;2023-07-29T00:46:45;5.47;;;3.63;;
12707;SDS011;6418;50.824;4.718;2023-07-29T00:49:13;5.40;;;3.53;;
12707;SDS011;6418;50.824;4.718;2023-07-29T00:51:40;7.60;;;3.60;;
12707;SDS011;6418;50.824;4.718;2023-07-29T00:54:07;9.07;;;3.73;;
12707;SDS011;6418;50.824;4.718;2023-07-29T00:56:34;5.23;;;3.63;;
12707;SDS011;6418;50.824;4.718;2023-07-29T00:59:01;4.97;;;3.50;;
12707;SDS011;6418;50.824;4.718;2023-07-29T01:01:30;4.57;;;3.50;;
12707;SDS011;6418;50.824;4.718;2023-07-29T01:03:59;4.90;;;3.33;;
12707;SDS011;6418;50.824;4.718;2023-07-29T01:06:27;5.27;;;3.20;;
12707;SDS011;6418;50.824;4.718;2023-07-29T01:09:02;4.83;;;3.43;;
12707;SDS011;6418;50.824;4.718;2023-07-29T01:11:33;6.17;;;3.60;;
12707;SDS011;6418;50.824;4.718;2023-07-29T01:14:10;6.97;;;3.23;;
12707;SDS011;6418;50.824;4.718;2023-07-29T01:16:46;5.93;;;3.30;;
12707;SDS011;6418;50.824;4.718;2023-07-29T01:19:20;6.27;;;3.50;;
12707;SDS011;6418;50.824;4.718;2023-07-29T01:21:56;5.53;;;3.40;;
12707;SDS011;6418;50.824;4.718;2023-07-29T01:24:26;7.83;;;3.60;;
12707;SDS011;6418;50.824;4.718;2023-07-29T01:26:53;6.07;;;3.50;;
12707;SDS011;6418;50.824;4.718;2023-07-29T01:29:20;5.27;;;3.50;;
12707;SDS011;6418;50.824;4.718;2023-07-29T01:31:47;5.13;;;3.50;;
12707;SDS011;6418;50.824;4.718;2023-07-29T01:34:22;3.60;;;3.20;;
12707;SDS011;6418;50.824;4.718;2023-07-29T01:36:52;5.87;;;3.50;;
12707;SDS011;6418;50.824;4.718;2023-07-29T01:39:23;8.10;;;3.53;;
12707;SDS011;6418;50.824;4.718;2023-07-29T01:41:53;6.20;;;3.27;;
12707;SDS011;6418;50.824;4.718;2023-07-29T01:44:21;5.10;;;3.47;;
12707;SDS011;6418;50.824;4.718;2023-07-29T01:46:48;4.93;;;3.40;;
12707;SDS011;6418;50.824;4.718;2023-07-29T01:49:15;7.43;;;3.87;;
12707;SDS011;6418;50.824;4.718;2023-07-29T01:51:42;6.77;;;3.50;;
12707;SDS011;6418;50.824;4.718;2023-07-29T01:54:09;5.57;;;3.60;;
12707;SDS011;6418;50.824;4.718;2023-07-29T01:56:36;6.57;;;3.50;;
12707;SDS011;6418;50.824;4.718;2023-07-29T01:59:04;7.50;;;3.80;;
12707;SDS011;6418;50.824;4.718;2023-07-29T02:01:31;7.70;;;3.70;;
12707;SDS011;6418;50.824;4.718;2023-07-29T02:03:58;7.60;;;3.60;;
12707;SDS011;6418;50.824;4.718;2023-07-29T02:06:25;8.57;;;3.90;;
12707;SDS011;6418;50.824;4.718;2023-07-29T02:08:52;6.67;;;3.90;;
12707;SDS011;6418;50.824;4.718;2023-07-29T02:11:19;6.73;;;3.80;;
12707;SDS011;6418;50.824;4.718;2023-07-29T02:13:52;6.73;;;3.90;;
12707;SDS011;6418;50.824;4.718;2023-07-29T02:16:20;8.03;;;3.80;;
12707;SDS011;6418;50.824;4.718;2023-07-29T02:18:47;6.80;;;3.70;;
12707;SDS011;6418;50.824;4.718;2023-07-29T02:21:14;6.90;;;4.00;;
12707;SDS011;6418;50.824;4.718;2023-07-29T02:23:41;8.60;;;3.90;;
12707;SDS011;6418;50.824;4.718;2023-07-29T02:26:08;6.93;;;3.80;;
12707;SDS011;6418;50.824;4.718;2023-07-29T02:28:35;7.13;;;3.93;;
12707;SDS011;6418;50.824;4.718;2023-07-29T02:31:09;6.47;;;3.80;;
12707;SDS011;6418;50.824;4.718;2023-07-29T02:33:43;6.80;;;3.87;;
12707;SDS011;6418;50.824;4.718;2023-07-29T02:36:11;7.97;;;4.00;;
12707;SDS011;6418;50.824;4.718;2023-07-29T02:38:39;6.50;;;3.90;;
12707;SDS011;6418;50.824;4.718;2023-07-29T02:41:06;8.27;;;3.83;;
12707;SDS011;6418;50.824;4.718;2023-07-29T02:43:34;9.13;;;3.90;;
12707;SDS011;6418;50.824;4.718;2023-07-29T02:46:01;7.33;;;4.13;;
12707;SDS011;6418;50.824;4.718;2023-07-29T02:48:28;7.20;;;4.03;;
12707;SDS011;6418;50.824;4.718;2023-07-29T02:50:56;7.73;;;4.03;;
12707;SDS011;6418;50.824;4.718;2023-07-29T02:53:24;7.50;;;3.97;;
12707;SDS011;6418;50.824;4.718;2023-07-29T02:55:51;7.70;;;3.90;;
12707;SDS011;6418;50.824;4.718;2023-07-29T02:58:18;6.37;;;3.77;;
12707;SDS011;6418;50.824;4.718;2023-07-29T03:00:45;7.07;;;3.83;;
12707;SDS011;6418;50.824;4.718;2023-07-29T03:03:13;5.83;;;3.87;;
12707;SDS011;6418;50.824;4.718;2023-07-29T03:05:40;6.97;;;3.90;;
12707;SDS011;6418;50.824;4.718;2023-07-29T03:08:09;8.40;;;4.20;;
12707;SDS011;6418;50.824;4.718;2023-07-29T03:10:35;8.47;;;4.33;;
12707;SDS011;6418;50.824;4.718;2023-07-29T03:13:02;8.77;;;4.20;;
12707;SDS011;6418;50.824;4.718;2023-07-29T03:15:29;9.43;;;4.33;;
12707;SDS011;6418;50.824;4.718;2023-07-29T03:17:59;7.93;;;4.17;;
12707;SDS011;6418;50.824;4.718;2023-07-29T03:20:25;8.57;;;4.33;;
12707;SDS011;6418;50.824;4.718;2023-07-29T03:22:52;8.90;;;3.93;;
12707;SDS011;6418;50.824;4.718;2023-07-29T03:25:21;6.90;;;4.13;;
12707;SDS011;6418;50.824;4.718;2023-07-29T03:27:48;7.40;;;4.17;;
12707;SDS011;6418;50.824;4.718;2023-07-29T03:30:15;6.03;;;4.10;;
12707;SDS011;6418;50.824;4.718;2023-07-29T03:32:45;10.23;;;4.43;;
12707;SDS011;6418;50.824;4.718;2023-07-29T03:35:12;11.60;;;4.07;;
12707;SDS011;6418;50.824;4.718;2023-07-29T03:37:39;8.10;;;3.97;;
12707;SDS011;6418;50.824;4.718;2023-07-29T03:40:06;7.53;;;4.20;;
12707;SDS011;6418;50.824;4.718;2023-07-29T03:42:35;8.47;;;4.30;;
12707;SDS011;6418;50.824;4.718;2023-07-29T03:45:03;9.63;;;3.90;;
12707;SDS011;6418;50.824;4.718;2023-07-29T03:47:30;6.80;;;4.20;;
12707;SDS011;6418;50.824;4.718;2023-07-29T03:49:57;9.00;;;4.40;;
12707;SDS011;6418;50.824;4.718;2023-07-29T03:52:24;8.50;;;4.50;;
12707;SDS011;6418;50.824;4.718;2023-07-29T03:54:51;8.13;;;4.03;;
12707;SDS011;6418;50.824;4.718;2023-07-29T03:57:18;7.90;;;4.23;;
12707;SDS011;6418;50.824;4.718;2023-07-29T03:59:46;9.53;;;4.27;;
12707;SDS011;6418;50.824;4.718;2023-07-29T04:02:13;10.00;;;4.40;;
12707;SDS011;6418;50.824;4.718;2023-07-29T04:04:39;9.27;;;4.33;;
12707;SDS011;6418;50.824;4.718;2023-07-29T04:07:07;9.83;;;4.07;;
12707;SDS011;6418;50.824;4.718;2023-07-29T04:09:34;7.50;;;4.10;;
12707;SDS011;6418;50.824;4.718;2023-07-29T04:12:01;9.80;;;4.50;;
12707;SDS011;6418;50.824;4.718;2023-07-29T04:14:28;9.17;;;4.47;;
12707;SDS011;6418;50.824;4.718;2023-07-29T04:16:56;8.23;;;4.10;;
12707;SDS011;6418;50.824;4.718;2023-07-29T04:19:23;5.73;;;4.00;;
12707;SDS011;6418;50.824;4.718;2023-07-29T04:21:50;7.97;;;4.37;;
12707;SDS011;6418;50.824;4.718;2023-07-29T04:24:17;6.23;;;4.20;;
12707;SDS011;6418;50.824;4.718;2023-07-29T04:26:45;8.60;;;4.27;;
12707;SDS011;6418;50.824;4.718;2023-07-29T04:29:12;9.27;;;4.40;;
12707;SDS011;6418;50.824;4.718;2023-07-29T04:31:39;8.73;;;4.20;;
12707;SDS011;6418;50.824;4.718;2023-07-29T04:34:07;8.63;;;4.30;;
12707;SDS011;6418;50.824;4.718;2023-07-29T04:36:34;12.23;;;4.23;;
12707;SDS011;6418;50.824;4.718;2023-07-29T04:39:01;8.53;;;3.73;;
12707;SDS011;6418;50.824;4.718;2023-07-29T04:41:28;9.53;;;4.10;;
12707;SDS011;6418;50.824;4.718;2023-07-29T04:43:55;11.17;;;4.40;;
12707;SDS011;6418;50.824;4.718;2023-07-29T04:46:22;7.63;;;3.93;;
12707;SDS011;6418;50.824;4.718;2023-07-29T04:48:48;7.53;;;4.20;;
12707;SDS011;6418;50.824;4.718;2023-07-29T04:51:17;6.80;;;4.07;;
12707;SDS011;6418;50.824;4.718;2023-07-29T04:53:43;10.43;;;4.30;;
12707;SDS011;6418;50.824;4.718;2023-07-29T04:56:10;12.27;;;4.40;;
12707;SDS011;6418;50.824;4.718;2023-07-29T04:58:37;10.20;;;3.93;;
12707;SDS011;6418;50.824;4.718;2023-07-29T05:01:04;9.70;;;4.27;;
12707;SDS011;6418;50.824;4.718;2023-07-29T05:03:32;11.90;;;4.20;;
12707;SDS011;6418;50.824;4.718;2023-07-29T05:05:59;9.60;;;4.00;;
12707;SDS011;6418;50.824;4.718;2023-07-29T05:08:27;6.60;;;3.70;;
12707;SDS011;6418;50.824;4.718;2023-07-29T05:10:54;9.23;;;4.10;;
12707;SDS011;6418;50.824;4.718;2023-07-29T05:13:22;7.53;;;4.30;;
12707;SDS011;6418;50.824;4.718;2023-07-29T05:15:49;10.40;;;4.10;;
12707;SDS011;6418;50.824;4.718;2023-07-29T05:18:16;7.33;;;4.27;;
12707;SDS011;6418;50.824;4.718;2023-07-29T05:20:43;7.53;;;3.87;;
12707;SDS011;6418;50.824;4.718;2023-07-29T05:23:10;9.43;;;4.07;;
12707;SDS011;6418;50.824;4.718;2023-07-29T05:25:38;7.23;;;3.73;;
12707;SDS011;6418;50.824;4.718;2023-07-29T05:28:05;9.60;;;3.83;;
12707;SDS011;6418;50.824;4.718;2023-07-29T05:30:32;7.87;;;3.80;;
12707;SDS011;6418;50.824;4.718;2023-07-29T05:33:02;6.73;;;3.93;;
12707;SDS011;6418;50.824;4.718;2023-07-29T05:35:29;8.03;;;4.10;;
12707;SDS011;6418;50.824;4.718;2023-07-29T05:37:56;7.60;;;3.97;;
12707;SDS011;6418;50.824;4.718;2023-07-29T05:40:23;8.10;;;4.20;;
12707;SDS011;6418;50.824;4.718;2023-07-29T05:42:51;5.93;;;3.47;;
12707;SDS011;6418;50.824;4.718;2023-07-29T05:45:18;7.70;;;3.90;;
12707;SDS011;6418;50.824;4.718;2023-07-29T05:47:45;12.73;;;3.90;;
12707;SDS011;6418;50.824;4.718;2023-07-29T05:50:12;6.03;;;3.87;;
12707;SDS011;6418;50.824;4.718;2023-07-29T05:52:39;10.90;;;3.93;;
12707;SDS011;6418;50.824;4.718;2023-07-29T05:55:06;5.63;;;3.60;;
12707;SDS011;6418;50.824;4.718;2023-07-29T05:57:33;7.57;;;3.57;;
12707;SDS011;6418;50.824;4.718;2023-07-29T06:00:02;9.77;;;3.90;;
12707;SDS011;6418;50.824;4.718;2023-07-29T06:02:29;5.70;;;3.47;;
12707;SDS011;6418;50.824;4.718;2023-07-29T06:04:56;5.70;;;3.40;;
12707;SDS011;6418;50.824;4.718;2023-07-29T06:07:23;7.23;;;3.30;;
12707;SDS011;6418;50.824;4.718;2023-07-29T06:09:53;5.63;;;3.40;;
12707;SDS011;6418;50.824;4.718;2023-07-29T06:12:20;5.20;;;3.23;;
12707;SDS011;6418;50.824;4.718;2023-07-29T06:14:47;5.70;;;3.30;;
12707;SDS011;6418;50.824;4.718;2023-07-29T06:17:15;6.13;;;3.50;;
12707;SDS011;6418;50.824;4.718;2023-07-29T06:19:42;6.93;;;3.70;;
12707;SDS011;6418;50.824;4.718;2023-07-29T06:22:09;4.90;;;3.37;;
12707;SDS011;6418;50.824;4.718;2023-07-29T06:24:36;5.60;;;3.20;;
12707;SDS011;6418;50.824;4.718;2023-07-29T06:27:03;4.43;;;3.10;;
12707;SDS011;6418;50.824;4.718;2023-07-29T06:29:30;4.23;;;3.23;;
12707;SDS011;6418;50.824;4.718;2023-07-29T06:31:58;5.67;;;3.33;;
12707;SDS011;6418;50.824;4.718;2023-07-29T06:34:26;4.90;;;3.07;;
12707;SDS011;6418;50.824;4.718;2023-07-29T06:36:53;6.20;;;3.50;;
12707;SDS011;6418;50.824;4.718;2023-07-29T06:39:20;8.10;;;3.60;;
12707;SDS011;6418;50.824;4.718;2023-07-29T06:41:47;8.20;;;3.70;;
12707;SDS011;6418;50.824;4.718;2023-07-29T06:44:14;6.77;;;3.60;;
12707;SDS011;6418;50.824;4.718;2023-07-29T06:46:41;5.27;;;3.07;;
12707;SDS011;6418;50.824;4.718;2023-07-29T06:49:08;7.10;;;3.40;;
12707;SDS011;6418;50.824;4.718;2023-07-29T06:51:37;5.00;;;3.20;;
12707;SDS011;6418;50.824;4.718;2023-07-29T06:54:04;7.40;;;3.50;;
12707;SDS011;6418;50.824;4.718;2023-07-29T06:56:31;4.33;;;3.43;;
12707;SDS011;6418;50.824;4.718;2023-07-29T06:58:58;5.67;;;3.30;;
12707;SDS011;6418;50.824;4.718;2023-07-29T07:01:25;4.87;;;3.20;;
12707;SDS011;6418;50.824;4.718;2023-07-29T07:03:52;6.10;;;3.40;;
12707;SDS011;6418;50.824;4.718;2023-07-29T07:06:19;6.17;;;3.20;;
12707;SDS011;6418;50.824;4.718;2023-07-29T07:08:48;5.53;;;3.55;;
12707;SDS011;6418;50.824;4.718;2023-07-29T07:11:15;4.82;;;3.22;;
12707;SDS011;6418;50.824;4.718;2023-07-29T07:13:42;5.05;;;3.40;;
12707;SDS011;6418;50.824;4.718;2023-07-29T07:16:09;5.75;;;3.05;;
12707;SDS011;6418;50.824;4.718;2023-07-29T07:18:36;4.07;;;3.20;;
12707;SDS011;6418;50.824;4.718;2023-07-29T07:21:02;7.13;;;3.22;;
12707;SDS011;6418;50.824;4.718;2023-07-29T07:23:29;5.85;;;2.97;;
12707;SDS011;6418;50.824;4.718;2023-07-29T07:25:58;7.35;;;3.40;;
12707;SDS011;6418;50.824;4.718;2023-07-29T07:28:25;7.65;;;3.38;;
12707;SDS011;6418;50.824;4.718;2023-07-29T07:30:52;6.97;;;3.60;;
12707;SDS011;6418;50.824;4.718;2023-07-29T07:33:20;4.63;;;3.22;;
12707;SDS011;6418;50.824;4.718;2023-07-29T07:35:47;7.68;;;3.20;;
12707;SDS011;6418;50.824;4.718;2023-07-29T07:38:14;5.35;;;3.25;;
12707;SDS011;6418;50.824;4.718;2023-07-29T07:40:41;4.13;;;3.28;;
12707;SDS011;6418;50.824;4.718;2023-07-29T07:43:09;7.68;;;3.47;;
12707;SDS011;6418;50.824;4.718;2023-07-29T07:45:36;6.93;;;3.20;;
12707;SDS011;6418;50.824;4.718;2023-07-29T07:48:03;7.00;;;3.35;;
12707;SDS011;6418;50.824;4.718;2023-07-29T07:50:30;5.70;;;3.53;;
12707;SDS011;6418;50.824;4.718;2023-07-29T07:52:57;5.10;;;3.20;;
12707;SDS011;6418;50.824;4.718;2023-07-29T07:55:24;7.40;;;3.38;;
12707;SDS011;6418;50.824;4.718;2023-07-29T07:57:51;6.15;;;2.90;;
12707;SDS011;6418;50.824;4.718;2023-07-29T08:00:19;4.82;;;2.80;;
12707;SDS011;6418;50.824;4.718;2023-07-29T08:02:46;4.88;;;3.20;;
12707;SDS011;6418;50.824;4.718;2023-07-29T08:05:13;9.95;;;3.58;;
12707;SDS011;6418;50.824;4.718;2023-07-29T08:07:40;4.43;;;2.90;;
12707;SDS011;6418;50.824;4.718;2023-07-29T08:10:07;5.32;;;3.20;;
12707;SDS011;6418;50.824;4.718;2023-07-29T08:12:34;4.97;;;3.30;;
12707;SDS011;6418;50.824;4.718;2023-07-29T08:15:01;7.72;;;3.30;;
12707;SDS011;6418;50.824;4.718;2023-07-29T08:17:30;5.80;;;3.38;;
12707;SDS011;6418;50.824;4.718;2023-07-29T08:19:57;5.97;;;3.33;;
12707;SDS011;6418;50.824;4.718;2023-07-29T08:22:24;4.22;;;2.90;;
12707;SDS011;6418;50.824;4.718;2023-07-29T08:24:51;7.13;;;3.20;;
12707;SDS011;6418;50.824;4.718;2023-07-29T08:27:18;5.10;;;3.20;;
12707;SDS011;6418;50.824;4.718;2023-07-29T08:29:44;3.30;;;2.90;;
12707;SDS011;6418;50.824;4.718;2023-07-29T08:32:11;3.67;;;2.75;;
12707;SDS011;6418;50.824;4.718;2023-07-29T08:34:40;5.40;;;2.88;;
12707;SDS011;6418;50.824;4.718;2023-07-29T08:37:06;9.23;;;2.88;;
12707;SDS011;6418;50.824;4.718;2023-07-29T08:39:33;5.20;;;2.90;;
12707;SDS011;6418;50.824;4.718;2023-07-29T08:42:01;4.78;;;3.13;;
12707;SDS011;6418;50.824;4.718;2023-07-29T08:44:31;6.63;;;3.20;;
12707;SDS011;6418;50.824;4.718;2023-07-29T08:47:01;8.75;;;3.05;;
12707;SDS011;6418;50.824;4.718;2023-07-29T08:49:29;7.82;;;2.75;;
12707;SDS011;6418;50.824;4.718;2023-07-29T08:51:58;6.90;;;3.00;;
12707;SDS011;6418;50.824;4.718;2023-07-29T08:54:27;4.40;;;3.17;;
12707;SDS011;6418;50.824;4.718;2023-07-29T08:56:54;4.70;;;3.10;;
12707;SDS011;6418;50.824;4.718;2023-07-29T08:59:21;5.15;;;3.28;;
12707;SDS011;6418;50.824;4.718;2023-07-29T09:01:48;5.20;;;3.22;;
12707;SDS011;6418;50.824;4.718;2023-07-29T09:04:18;4.47;;;3.03;;
12707;SDS011;6418;50.824;4.718;2023-07-29T09:06:45;3.53;;;3.00;;
12707;SDS011;6418;50.824;4.718;2023-07-29T09:09:15;5.20;;;2.90;;
12707;SDS011;6418;50.824;4.718;2023-07-29T09:11:42;9.10;;;3.40;;
12707;SDS011;6418;50.824;4.718;2023-07-29T09:14:10;5.00;;;3.00;;
12707;SDS011;6418;50.824;4.718;2023-07-29T09:16:37;4.75;;;3.10;;
12707;SDS011;6418;50.824;4.718;2023-07-29T09:19:04;4.13;;;2.97;;
12707;SDS011;6418;50.824;4.718;2023-07-29T09:21:31;4.53;;;3.00;;
12707;SDS011;6418;50.824;4.718;2023-07-29T09:24:02;4.82;;;2.88;;
12707;SDS011;6418;50.824;4.718;2023-07-29T09:26:31;7.03;;;3.30;;
12707;SDS011;6418;50.824;4.718;2023-07-29T09:28:59;3.30;;;2.78;;
12707;SDS011;6418;50.824;4.718;2023-07-29T09:31:26;4.53;;;3.40;;
12707;SDS011;6418;50.824;4.718;2023-07-29T09:33:55;5.65;;;2.90;;
12707;SDS011;6418;50.824;4.718;2023-07-29T09:36:23;4.55;;;3.00;;
12707;SDS011;6418;50.824;4.718;2023-07-29T09:38:52;6.18;;;3.30;;
12707;SDS011;6418;50.824;4.718;2023-07-29T09:41:20;4.35;;;3.03;;
12707;SDS011;6418;50.824;4.718;2023-07-29T09:43:51;5.30;;;3.22;;
12707;SDS011;6418;50.824;4.718;2023-07-29T09:46:23;5.22;;;3.28;;
12707;SDS011;6418;50.824;4.718;2023-07-29T09:48:52;4.30;;;3.38;;
12707;SDS011;6418;50.824;4.718;2023-07-29T09:51:20;5.43;;;3.30;;
12707;SDS011;6418;50.824;4.718;2023-07-29T09:53:47;5.32;;;3.25;;
12707;SDS011;6418;50.824;4.718;2023-07-29T09:56:15;8.10;;;3.55;;
12707;SDS011;6418;50.824;4.718;2023-07-29T09:58:42;4.32;;;3.22;;
12707;SDS011;6418;50.824;4.718;2023-07-29T10:01:12;7.95;;;3.40;;
12707;SDS011;6418;50.824;4.718;2023-07-29T10:03:39;5.45;;;3.30;;
12707;SDS011;6418;50.824;4.718;2023-07-29T10:06:06;3.88;;;3.03;;
12707;SDS011;6418;50.824;4.718;2023-07-29T10:08:34;3.72;;;3.25;;
12707;SDS011;6418;50.824;4.718;2023-07-29T10:11:03;5.25;;;3.45;;
12707;SDS011;6418;50.824;4.718;2023-07-29T10:13:32;7.78;;;3.50;;
12707;SDS011;6418;50.824;4.718;2023-07-29T10:16:00;4.28;;;3.63;;
12707;SDS011;6418;50.824;4.718;2023-07-29T10:18:30;4.57;;;3.22;;
12707;SDS011;6418;50.824;4.718;2023-07-29T10:20:58;6.22;;;3.33;;
12707;SDS011;6418;50.824;4.718;2023-07-29T10:23:26;5.85;;;3.38;;
12707;SDS011;6418;50.824;4.718;2023-07-29T10:25:55;6.38;;;3.70;;
12707;SDS011;6418;50.824;4.718;2023-07-29T10:28:28;4.32;;;3.13;;
12707;SDS011;6418;50.824;4.718;2023-07-29T10:30:56;9.18;;;3.70;;
12707;SDS011;6418;50.824;4.718;2023-07-29T10:33:23;7.47;;;3.90;;
12707;SDS011;6418;50.824;4.718;2023-07-29T10:35:52;7.43;;;3.90;;
12707;SDS011;6418;50.824;4.718;2023-07-29T10:38:20;8.88;;;3.70;;
12707;SDS011;6418;50.824;4.718;2023-07-29T10:40:50;5.55;;;3.75;;
12707;SDS011;6418;50.824;4.718;2023-07-29T10:43:24;7.07;;;4.10;;
12707;SDS011;6418;50.824;4.718;2023-07-29T10:45:51;6.10;;;3.85;;
12707;SDS011;6418;50.824;4.718;2023-07-29T10:54:00;5.30;;;4.03;;
12707;SDS011;6418;50.824;4.718;2023-07-29T10:56:29;6.75;;;3.97;;
12707;SDS011;6418;50.824;4.718;2023-07-29T10:58:58;7.80;;;4.00;;
12707;SDS011;6418;50.824;4.718;2023-07-29T11:01:28;6.93;;;4.10;;
12707;SDS011;6418;50.824;4.718;2023-07-29T11:07:02;8.23;;;4.30;;
12707;SDS011;6418;50.824;4.718;2023-07-29T11:09:52;6.93;;;4.07;;
12707;SDS011;6418;50.824;4.718;2023-07-29T11:12:33;7.38;;;4.18;;
12707;SDS011;6418;50.824;4.718;2023-07-29T11:15:12;7.32;;;4.00;;
12707;SDS011;6418;50.824;4.718;2023-07-29T11:17:41;7.32;;;4.07;;
12707;SDS011;6418;50.824;4.718;2023-07-29T11:20:09;8.30;;;4.00;;
12707;SDS011;6418;50.824;4.718;2023-07-29T11:22:38;8.07;;;3.85;;
12707;SDS011;6418;50.824;4.718;2023-07-29T11:25:07;7.28;;;4.00;;
12707;SDS011;6418;50.824;4.718;2023-07-29T11:27:35;8.77;;;4.30;;
12707;SDS011;6418;50.824;4.718;2023-07-29T11:30:03;6.13;;;4.10;;
12707;SDS011;6418;50.824;4.718;2023-07-29T11:32:31;5.95;;;3.92;;
12707;SDS011;6418;50.824;4.718;2023-07-29T11:35:01;6.78;;;4.05;;
12707;SDS011;6418;50.824;4.718;2023-07-29T11:37:29;7.70;;;4.30;;
12707;SDS011;6418;50.824;4.718;2023-07-29T11:39:57;6.13;;;4.00;;
12707;SDS011;6418;50.824;4.718;2023-07-29T11:42:24;6.32;;;4.15;;
12707;SDS011;6418;50.824;4.718;2023-07-29T11:44:53;6.00;;;4.10;;
12707;SDS011;6418;50.824;4.718;2023-07-29T11:47:19;9.15;;;4.63;;
12707;SDS011;6418;50.824;4.718;2023-07-29T11:49:47;8.57;;;4.70;;
12707;SDS011;6418;50.824;4.718;2023-07-29T11:52:13;8.25;;;4.57;;
12707;SDS011;6418;50.824;4.718;2023-07-29T11:54:44;10.13;;;5.18;;
12707;SDS011;6418;50.824;4.718;2023-07-29T11:57:12;8.57;;;4.90;;
12707;SDS011;6418;50.824;4.718;2023-07-29T11:59:40;8.93;;;5.00;;
12707;SDS011;6418;50.824;4.718;2023-07-29T12:02:08;9.95;;;4.88;;
12707;SDS011;6418;50.824;4.718;2023-07-29T12:04:37;6.55;;;4.82;;
12707;SDS011;6418;50.824;4.718;2023-07-29T12:07:05;9.30;;;5.00;;
12707;SDS011;6418;50.824;4.718;2023-07-29T12:09:32;8.75;;;5.30;;
12707;SDS011;6418;50.824;4.718;2023-07-29T12:12:00;7.72;;;4.90;;
12707;SDS011;6418;50.824;4.718;2023-07-29T12:14:29;8.77;;;4.80;;
12707;SDS011;6418;50.824;4.718;2023-07-29T12:16:56;7.53;;;4.70;;
12707;SDS011;6418;50.824;4.718;2023-07-29T12:19:30;7.18;;;4.28;;
12707;SDS011;6418;50.824;4.718;2023-07-29T12:21:58;7.68;;;4.22;;
12707;SDS011;6418;50.824;4.718;2023-07-29T12:24:25;6.20;;;4.30;;
12707;SDS011;6418;50.824;4.718;2023-07-29T12:26:52;7.30;;;4.25;;
12707;SDS011;6418;50.824;4.718;2023-07-29T12:29:19;6.07;;;3.88;;
12707;SDS011;6418;50.824;4.718;2023-07-29T12:31:47;8.05;;;4.43;;
12707;SDS011;6418;50.824;4.718;2023-07-29T12:34:18;5.55;;;4.22;;
12707;SDS011;6418;50.824;4.718;2023-07-29T12:36:47;11.15;;;4.30;;
12707;SDS011;6418;50.824;4.718;2023-07-29T12:39:18;7.32;;;4.38;;
12707;SDS011;6418;50.824;4.718;2023-07-29T12:41:45;7.20;;;4.18;;
12707;SDS011;6418;50.824;4.718;2023-07-29T12:44:12;5.82;;;4.00;;
12707;SDS011;6418;50.824;4.718;2023-07-29T12:46:39;5.05;;;3.60;;
12707;SDS011;6418;50.824;4.718;2023-07-29T12:49:08;4.75;;;3.55;;
12707;SDS011;6418;50.824;4.718;2023-07-29T12:51:35;6.72;;;3.63;;
12707;SDS011;6418;50.824;4.718;2023-07-29T12:54:02;8.32;;;4.00;;
12707;SDS011;6418;50.824;4.718;2023-07-29T12:56:29;5.00;;;3.70;;
12707;SDS011;6418;50.824;4.718;2023-07-29T12:58:57;5.18;;;3.72;;
12707;SDS011;6418;50.824;4.718;2023-07-29T13:01:24;6.65;;;3.80;;
12707;SDS011;6418;50.824;4.718;2023-07-29T13:03:51;6.55;;;3.80;;
12707;SDS011;6418;50.824;4.718;2023-07-29T13:06:20;4.15;;;3.53;;
12707;SDS011;6418;50.824;4.718;2023-07-29T13:08:47;5.72;;;3.50;;
12707;SDS011;6418;50.824;4.718;2023-07-29T13:11:14;5.32;;;3.70;;
12707;SDS011;6418;50.824;4.718;2023-07-29T13:13:42;4.50;;;3.70;;
12707;SDS011;6418;50.824;4.718;2023-07-29T13:16:10;4.78;;;3.75;;
12707;SDS011;6418;50.824;4.718;2023-07-29T13:18:38;3.95;;;3.50;;
12707;SDS011;6418;50.824;4.718;2023-07-29T13:21:04;4.00;;;3.60;;
12707;SDS011;6418;50.824;4.718;2023-07-29T13:23:33;3.80;;;3.50;;
12707;SDS011;6418;50.824;4.718;2023-07-29T13:25:59;4.13;;;3.05;;
12707;SDS011;6418;50.824;4.718;2023-07-29T13:28:27;3.90;;;3.47;;
12707;SDS011;6418;50.824;4.718;2023-07-29T13:30:54;4.63;;;3.60;;
12707;SDS011;6418;50.824;4.718;2023-07-29T13:33:20;4.70;;;3.30;;
12707;SDS011;6418;50.824;4.718;2023-07-29T13:35:47;3.28;;;2.97;;
12707;SDS011;6418;50.824;4.718;2023-07-29T13:38:15;4.03;;;2.88;;
12707;SDS011;6418;50.824;4.718;2023-07-29T13:40:43;4.50;;;3.28;;
12707;SDS011;6418;50.824;4.718;2023-07-29T13:43:10;5.32;;;3.42;;
12707;SDS011;6418;50.824;4.718;2023-07-29T13:45:37;5.50;;;3.03;;
12707;SDS011;6418;50.824;4.718;2023-07-29T13:48:04;5.15;;;3.25;;
12707;SDS011;6418;50.824;4.718;2023-07-29T13:50:31;3.65;;;3.35;;
12707;SDS011;6418;50.824;4.718;2023-07-29T13:52:58;3.42;;;3.08;;
12707;SDS011;6418;50.824;4.718;2023-07-29T13:55:25;4.93;;;3.45;;
12707;SDS011;6418;50.824;4.718;2023-07-29T13:57:53;4.70;;;3.25;;
12707;SDS011;6418;50.824;4.718;2023-07-29T14:00:20;3.35;;;3.00;;
12707;SDS011;6418;50.824;4.718;2023-07-29T14:02:47;3.70;;;3.30;;
12707;SDS011;6418;50.824;4.718;2023-07-29T14:05:14;4.47;;;3.10;;
12707;SDS011;6418;50.824;4.718;2023-07-29T14:07:41;3.55;;;2.85;;
12707;SDS011;6418;50.824;4.718;2023-07-29T14:10:08;3.67;;;3.25;;
12707;SDS011;6418;50.824;4.718;2023-07-29T14:12:35;3.70;;;3.40;;
12707;SDS011;6418;50.824;4.718;2023-07-29T14:15:04;4.13;;;3.15;;
12707;SDS011;6418;50.824;4.718;2023-07-29T14:17:31;3.50;;;3.20;;
12707;SDS011;6418;50.824;4.718;2023-07-29T14:19:58;4.15;;;3.25;;
12707;SDS011;6418;50.824;4.718;2023-07-29T14:22:25;3.78;;;3.20;;
12707;SDS011;6418;50.824;4.718;2023-07-29T14:24:52;5.18;;;3.42;;
12707;SDS011;6418;50.824;4.718;2023-07-29T14:27:19;4.72;;;3.13;;
12707;SDS011;6418;50.824;4.718;2023-07-29T14:29:46;3.58;;;2.75;;
12707;SDS011;6418;50.824;4.718;2023-07-29T14:32:14;4.65;;;3.22;;
12707;SDS011;6418;50.824;4.718;2023-07-29T14:34:41;3.42;;;3.03;;
12707;SDS011;6418;50.824;4.718;2023-07-29T14:37:08;3.65;;;2.72;;
12707;SDS011;6418;50.824;4.718;2023-07-29T14:39:34;3.40;;;3.10;;
12707;SDS011;6418;50.824;4.718;2023-07-29T14:42:02;2.90;;;2.60;;
12707;SDS011;6418;50.824;4.718;2023-07-29T14:44:29;4.18;;;2.58;;
12707;SDS011;6418;50.824;4.718;2023-07-29T14:46:56;3.88;;;2.72;;
12707;SDS011;6418;50.824;4.718;2023-07-29T14:49:24;3.25;;;2.70;;
12707;SDS011;6418;50.824;4.718;2023-07-29T14:51:51;3.75;;;2.65;;
12707;SDS011;6418;50.824;4.718;2023-07-29T14:54:17;3.55;;;2.70;;
12707;SDS011;6418;50.824;4.718;2023-07-29T14:56:44;3.50;;;2.80;;
12707;SDS011;6418;50.824;4.718;2023-07-29T14:59:11;5.35;;;2.40;;
12707;SDS011;6418;50.824;4.718;2023-07-29T15:01:38;4.22;;;2.70;;
12707;SDS011;6418;50.824;4.718;2023-07-29T15:04:05;6.03;;;2.58;;
12707;SDS011;6418;50.824;4.718;2023-07-29T15:06:33;4.50;;;2.88;;
12707;SDS011;6418;50.824;4.718;2023-07-29T15:09:00;2.95;;;2.35;;
12707;SDS011;6418;50.824;4.718;2023-07-29T15:11:27;3.30;;;2.70;;